Time,TemperatureF,DewpointF,PressureIn,WindDirection,WindDirectionDegrees,WindSpeedMPH,WindSpeedGustMPH,Humidity,HourlyPrecipIn,Conditions,Clouds,dailyrainin,SolarRadiationWatts/m^2,SoftwareType,DateUTC
2013-04-03 00:01:00,26.5,19.7,30.39,NNE,24,0.0,0.0,75,0.00,,---,0.00,0.00,VWS V14.01,2013-04-03 05:01:00,
2013-04-03 00:07:00,26.4,19.9,30.39,NNE,24,0.0,0.0,76,0.00,,---,0.00,0.00,VWS V14.01,2013-04-03 05:07:00,
2013-04-03 00:14:00,26.4,20.2,30.39,NNE,24,0.0,0.0,77,0.00,,---,0.00,0.00,VWS V14.01,2013-04-03 05:14:00,
2013-04-03 00:20:00,26.3,20.4,30.39,NNE,24,0.0,0.0,78,0.00,,---,0.00,0.00,VWS V14.01,2013-04-03 05:20:00,
2013-04-03 00:28:00,26.4,20.5,30.39,NNE,24,0.0,0.0,78,0.00,,---,0.00,0.00,VWS V14.01,2013-04-03 05:28:00,
2013-04-03 00:34:00,26.5,20.6,30.40,NNE,24,0.0,0.0,78,0.00,,---,0.00,0.00,VWS V14.01,2013-04-03 05:34:00,
2013-04-03 00:39:00,26.5,20.6,30.39,NNE,24,0.0,0.0,78,0.00,,---,0.00,0.00,VWS V14.01,2013-04-03 05:39:00,
2013-04-03 00:44:00,26.5,20.6,30.39,NNE,24,0.0,0.0,78,0.00,,---,0.00,0.00,VWS V14.01,2013-04-03 05:44:00,
2013-04-03 00:49:00,26.4,20.8,30.39,NNE,24,0.0,0.0,79,0.00,,---,0.00,0.00,VWS V14.01,2013-04-03 05:49:00,
2013-04-03 00:54:00,26.3,21.0,30.39,NNE,24,0.0,0.0,80,0.00,,---,0.00,0.00,VWS V14.01,2013-04-03 05:54:00,
2013-04-03 01:00:00,26.2,20.9,30.39,NNE,24,0.0,0.0,80,0.00,,---,0.00,0.00,VWS V14.01,2013-04-03 06:00:00,
2013-04-03 01:05:00,26.1,20.8,30.39,NNE,24,0.0,0.0,80,0.00,,---,0.00,0.00,VWS V14.01,2013-04-03 06:05:00,
2013-04-03 01:12:00,25.9,20.9,30.39,NNE,24,0.0,0.0,81,0.00,,---,0.00,0.00,VWS V14.01,2013-04-03 06:12:00,
2013-04-03 01:22:00,25.6,20.6,30.39,NNE,24,0.0,0.0,81,0.00,,---,0.00,0.00,VWS V14.01,2013-04-03 06:22:00,
2013-04-03 01:27:00,25.6,20.3,30.40,NNE,24,0.0,0.0,80,0.00,,---,0.00,0.00,VWS V14.01,2013-04-03 06:27:00,
2013-04-03 01:33:00,25.5,20.2,30.40,NNE,24,0.0,0.0,80,0.00,,---,0.00,0.00,VWS V14.01,2013-04-03 06:33:00,
2013-04-03 01:39:00,25.3,20.3,30.40,NNE,24,0.0,0.0,81,0.00,,---,0.00,0.00,VWS V14.01,2013-04-03 06:39:00,
2013-04-03 01:47:00,25.1,20.4,30.40,NNE,24,0.0,0.0,82,0.00,,---,0.00,0.00,VWS V14.01,2013-04-03 06:47:00,
2013-04-03 01:53:00,25.0,20.3,30.40,NNE,24,0.0,0.0,82,0.00,,---,0.00,0.00,VWS V14.01,2013-04-03 06:53:00,
2013-04-03 01:58:00,24.9,20.2,30.40,NNE,24,0.0,0.0,82,0.00,,---,0.00,0.00,VWS V14.01,2013-04-03 06:58:00,
2013-04-03 02:04:00,24.8,20.1,30.40,NNE,24,0.0,0.0,82,0.00,,---,0.00,0.00,VWS V14.01,2013-04-03 07:04:00,
2013-04-03 02:16:00,24.9,20.2,30.40,NNE,24,0.0,0.0,82,0.00,,---,0.00,0.00,VWS V14.01,2013-04-03 07:16:00,
2013-04-03 02:22:00,25.1,20.4,30.40,NNE,24,0.0,0.0,82,0.00,,---,0.00,0.00,VWS V14.01,2013-04-03 07:22:00,
2013-04-03 02:28:00,25.2,20.8,30.40,NNE,24,0.0,0.0,83,0.00,,---,0.00,0.00,VWS V14.01,2013-04-03 07:28:00,
2013-04-03 02:33:00,25.1,20.4,30.40,NNE,24,0.0,0.0,82,0.00,,---,0.00,0.00,VWS V14.01,2013-04-03 07:33:00,
2013-04-03 02:42:00,24.8,20.7,30.40,NNE,24,0.0,0.0,84,0.00,,---,0.00,0.00,VWS V14.01,2013-04-03 07:42:00,
2013-04-03 02:48:00,24.7,20.6,30.40,NNE,24,0.0,0.0,84,0.00,,---,0.00,0.00,VWS V14.01,2013-04-03 07:48:00,
2013-04-03 02:53:00,24.5,20.6,30.40,NNE,24,0.0,0.0,85,0.00,,---,0.00,0.00,VWS V14.01,2013-04-03 07:53:00,
2013-04-03 02:58:00,24.4,20.5,30.40,NNE,24,0.0,0.0,85,0.00,,---,0.00,0.00,VWS V14.01,2013-04-03 07:58:00,
2013-04-03 03:04:00,24.3,20.7,30.40,NNE,24,0.0,0.0,86,0.00,,---,0.00,0.00,VWS V14.01,2013-04-03 08:04:00,
2013-04-03 03:12:00,24.1,20.5,30.40,NNE,24,0.0,0.0,86,0.00,,---,0.00,0.00,VWS V14.01,2013-04-03 08:12:00,
2013-04-03 03:17:00,24.0,20.4,30.40,NNE,24,0.0,0.0,86,0.00,,---,0.00,0.00,VWS V14.01,2013-04-03 08:17:00,
2013-04-03 03:22:00,24.0,20.7,30.40,NNE,24,0.0,0.0,87,0.00,,---,0.00,0.00,VWS V14.01,2013-04-03 08:22:00,
2013-04-03 03:27:00,24.0,20.7,30.40,NNE,24,0.0,0.0,87,0.00,,---,0.00,0.00,VWS V14.01,2013-04-03 08:27:00,
2013-04-03 03:32:00,24.0,20.7,30.40,NNE,24,0.0,0.0,87,0.00,,---,0.00,0.00,VWS V14.01,2013-04-03 08:32:00,
2013-04-03 03:38:00,23.9,20.6,30.40,NNE,24,0.0,0.0,87,0.00,,---,0.00,0.00,VWS V14.01,2013-04-03 08:38:00,
2013-04-03 03:46:00,23.8,20.5,30.40,NNE,24,0.0,0.0,87,0.00,,---,0.00,0.00,VWS V14.01,2013-04-03 08:46:00,
2013-04-03 03:52:00,23.7,20.4,30.40,NNE,24,0.0,0.0,87,0.00,,---,0.00,0.00,VWS V14.01,2013-04-03 08:52:00,
2013-04-03 03:57:00,23.7,20.4,30.40,NNE,24,0.0,0.0,87,0.00,,---,0.00,0.00,VWS V14.01,2013-04-03 08:57:00,
2013-04-03 04:08:00,23.5,20.2,30.40,NNE,24,0.0,0.0,87,0.00,,---,0.00,0.00,VWS V14.01,2013-04-03 09:08:00,
2013-04-03 04:14:00,23.4,20.1,30.39,NNE,24,0.0,0.0,87,0.00,,---,0.00,0.00,VWS V14.01,2013-04-03 09:14:00,
2013-04-03 04:22:00,23.3,20.0,30.40,NNE,24,0.0,0.0,87,0.00,,---,0.00,0.00,VWS V14.01,2013-04-03 09:22:00,
2013-04-03 04:31:00,23.2,19.9,30.40,NNE,24,0.0,0.0,87,0.00,,---,0.00,0.00,VWS V14.01,2013-04-03 09:31:00,
2013-04-03 04:38:00,23.1,19.8,30.40,NNE,24,0.0,0.0,87,0.00,,---,0.00,0.00,VWS V14.01,2013-04-03 09:38:00,
2013-04-03 04:44:00,23.1,19.8,30.39,NNE,24,0.0,0.0,87,0.00,,---,0.00,0.00,VWS V14.01,2013-04-03 09:44:00,
2013-04-03 04:50:00,23.1,19.8,30.39,NNE,24,0.0,0.0,87,0.00,,---,0.00,0.00,VWS V14.01,2013-04-03 09:50:00,
2013-04-03 04:58:00,23.3,20.0,30.39,NNE,24,0.0,0.0,87,0.00,,---,0.00,0.00,VWS V14.01,2013-04-03 09:58:00,
2013-04-03 05:03:00,23.4,19.8,30.40,NNE,24,0.0,0.0,86,0.00,,---,0.00,0.00,VWS V14.01,2013-04-03 10:03:00,
2013-04-03 05:10:00,23.4,19.8,30.40,NNE,24,0.0,0.0,86,0.00,,---,0.00,0.00,VWS V14.01,2013-04-03 10:10:00,
2013-04-03 05:18:00,23.4,19.6,30.40,ENE,67,1.0,1.0,85,0.00,,---,0.00,0.00,VWS V14.01,2013-04-03 10:18:00,
2013-04-03 05:24:00,23.3,19.5,30.40,East,82,2.0,4.0,85,0.00,,---,0.00,0.00,VWS V14.01,2013-04-03 10:24:00,
2013-04-03 05:29:00,23.3,19.2,30.40,East,97,3.0,5.0,84,0.00,,---,0.00,0.00,VWS V14.01,2013-04-03 10:29:00,
2013-04-03 05:34:00,23.3,19.2,30.40,East,97,2.0,4.0,84,0.00,,---,0.00,0.00,VWS V14.01,2013-04-03 10:34:00,
2013-04-03 05:40:00,23.4,19.3,30.40,East,97,3.0,5.0,84,0.00,,---,0.00,0.00,VWS V14.01,2013-04-03 10:40:00,
2013-04-03 05:45:00,23.5,19.4,30.40,ESE,103,4.0,5.0,84,0.00,,---,0.00,0.00,VWS V14.01,2013-04-03 10:45:00,
2013-04-03 05:52:00,23.6,19.2,30.39,ESE,105,4.0,5.0,83,0.00,,---,0.00,0.00,VWS V14.01,2013-04-03 10:52:00,
2013-04-03 05:59:00,23.7,19.3,30.39,ESE,106,3.0,5.0,83,0.00,,---,0.00,0.00,VWS V14.01,2013-04-03 10:59:00,
2013-04-03 06:04:00,23.6,18.9,30.39,ESE,107,4.0,4.0,82,0.00,,---,0.00,0.00,VWS V14.01,2013-04-03 11:04:00,
2013-04-03 06:10:00,23.5,18.8,30.39,ESE,107,4.0,5.0,82,0.00,,---,0.00,0.00,VWS V14.01,2013-04-03 11:10:00,
2013-04-03 06:16:00,23.5,19.1,30.39,ESE,107,4.0,5.0,83,0.00,,---,0.00,0.00,VWS V14.01,2013-04-03 11:16:00,
2013-04-03 06:21:00,23.4,19.0,30.39,ESE,106,4.0,5.0,83,0.00,,---,0.00,0.00,VWS V14.01,2013-04-03 11:21:00,
2013-04-03 06:27:00,23.4,19.0,30.39,ESE,106,2.0,5.0,83,0.00,,---,0.00,0.00,VWS V14.01,2013-04-03 11:27:00,
2013-04-03 06:33:00,23.4,19.0,30.39,ESE,107,3.0,5.0,83,0.00,,---,0.00,0.00,VWS V14.01,2013-04-03 11:33:00,
2013-04-03 06:38:00,23.4,19.0,30.39,ESE,107,5.0,5.0,83,0.00,,---,0.00,0.00,VWS V14.01,2013-04-03 11:38:00,
2013-04-03 06:43:00,23.5,19.1,30.39,ESE,109,3.0,5.0,83,0.00,,---,0.00,0.00,VWS V14.01,2013-04-03 11:43:00,
2013-04-03 06:48:00,23.4,19.0,30.39,ESE,109,3.0,5.0,83,0.00,,---,0.00,0.00,VWS V14.01,2013-04-03 11:48:00,
2013-04-03 06:53:00,23.6,19.2,30.39,SE,144,5.0,9.0,83,0.00,,---,0.00,0.00,VWS V14.01,2013-04-03 11:53:00,
2013-04-03 06:58:00,24.0,19.6,30.39,SE,145,5.0,9.0,83,0.00,,---,0.00,7.00,VWS V14.01,2013-04-03 11:58:00,
2013-04-03 07:05:00,24.3,19.9,30.39,SE,142,5.0,7.0,83,0.00,,---,0.00,12.00,VWS V14.01,2013-04-03 12:05:00,
2013-04-03 07:11:00,24.5,19.8,30.39,SE,144,5.0,7.0,82,0.00,,---,0.00,19.00,VWS V14.01,2013-04-03 12:11:00,
2013-04-03 07:16:00,24.8,20.1,30.39,SE,140,5.0,7.0,82,0.00,,---,0.00,23.00,VWS V14.01,2013-04-03 12:16:00,
2013-04-03 07:22:00,25.2,20.2,30.39,SE,136,5.0,9.0,81,0.00,,---,0.00,46.00,VWS V14.01,2013-04-03 12:22:00,
2013-04-03 07:29:00,25.8,20.8,30.40,SE,142,5.0,10.0,81,0.00,,---,0.00,63.00,VWS V14.01,2013-04-03 12:29:00,
2013-04-03 07:36:00,26.3,21.0,30.40,SSE,160,5.0,11.0,80,0.00,,---,0.00,79.00,VWS V14.01,2013-04-03 12:36:00,
2013-04-03 07:43:00,26.6,21.3,30.40,SSE,149,6.0,11.0,80,0.00,,---,0.00,98.00,VWS V14.01,2013-04-03 12:43:00,
2013-04-03 07:49:00,27.0,21.7,30.40,SSE,154,6.0,9.0,80,0.00,,---,0.00,111.00,VWS V14.01,2013-04-03 12:49:00,
2013-04-03 07:56:00,27.5,21.9,30.40,SE,145,6.0,13.0,79,0.00,,---,0.00,137.00,VWS V14.01,2013-04-03 12:56:00,
2013-04-03 08:02:00,27.8,22.1,30.40,SSE,148,8.0,15.0,79,0.00,,---,0.00,153.00,VWS V14.01,2013-04-03 13:02:00,
2013-04-03 08:10:00,28.4,22.7,30.39,SSE,159,13.0,14.0,79,0.00,,---,0.00,181.00,VWS V14.01,2013-04-03 13:10:00,
2013-04-03 08:17:00,28.8,22.8,30.39,SSE,150,7.0,14.0,78,0.00,,---,0.00,200.00,VWS V14.01,2013-04-03 13:17:00,
2013-04-03 08:22:00,29.2,23.2,30.38,SSE,150,10.0,14.0,78,0.00,,---,0.00,218.00,VWS V14.01,2013-04-03 13:22:00,
2013-04-03 08:29:00,29.6,23.3,30.38,SE,132,6.0,14.0,77,0.00,,---,0.00,244.00,VWS V14.01,2013-04-03 13:29:00,
2013-04-03 08:35:00,29.9,23.6,30.38,SE,141,10.0,12.0,77,0.00,,---,0.00,257.00,VWS V14.01,2013-04-03 13:35:00,
2013-04-03 08:40:00,30.4,23.8,30.38,SE,132,10.0,12.0,76,0.00,,---,0.00,271.00,VWS V14.01,2013-04-03 13:40:00,
2013-04-03 08:45:00,30.7,23.4,30.37,SE,139,11.0,17.0,74,0.00,,---,0.00,285.00,VWS V14.01,2013-04-03 13:45:00,
2013-04-03 08:51:00,31.0,24.0,30.37,SE,146,6.0,12.0,75,0.00,,---,0.00,302.00,VWS V14.01,2013-04-03 13:51:00,
2013-04-03 08:57:00,31.6,24.6,30.38,SE,142,9.0,12.0,75,0.00,,---,0.00,323.00,VWS V14.01,2013-04-03 13:57:00,
2013-04-03 09:03:00,32.0,24.7,30.38,SE,131,10.0,13.0,74,0.00,,---,0.00,341.00,VWS V14.01,2013-04-03 14:03:00,
2013-04-03 09:10:00,32.3,24.6,30.38,SE,139,12.0,15.0,73,0.00,,---,0.00,369.00,VWS V14.01,2013-04-03 14:10:00,
2013-04-03 09:17:00,32.6,24.9,30.38,SSE,160,10.0,17.0,73,0.00,,---,0.00,392.00,VWS V14.01,2013-04-03 14:17:00,
2013-04-03 09:24:00,33.0,25.0,30.38,SE,145,11.0,19.0,72,0.00,,---,0.00,415.00,VWS V14.01,2013-04-03 14:24:00,
2013-04-03 09:31:00,33.5,25.1,30.37,SSE,150,12.0,19.0,71,0.00,,---,0.00,436.00,VWS V14.01,2013-04-03 14:31:00,
2013-04-03 09:37:00,33.9,24.8,30.37,SSE,155,12.0,17.0,69,0.00,,---,0.00,454.00,VWS V14.01,2013-04-03 14:37:00,
2013-04-03 09:42:00,34.1,25.0,30.37,SSE,154,12.0,17.0,69,0.00,,---,0.00,471.00,VWS V14.01,2013-04-03 14:42:00,
2013-04-03 09:48:00,34.4,25.0,30.37,SSE,159,15.0,19.0,68,0.00,,---,0.00,489.00,VWS V14.01,2013-04-03 14:48:00,
2013-04-03 09:53:00,34.8,25.0,30.36,SSE,165,9.0,18.0,67,0.00,,---,0.00,503.00,VWS V14.01,2013-04-03 14:53:00,
2013-04-03 09:59:00,35.2,25.4,30.36,South,177,13.0,18.0,67,0.00,,---,0.00,519.00,VWS V14.01,2013-04-03 14:59:00,
2013-04-03 10:05:00,35.4,25.2,30.36,SSE,167,13.0,17.0,66,0.00,,---,0.00,536.00,VWS V14.01,2013-04-03 15:05:00,
2013-04-03 10:13:00,36.0,25.8,30.36,SE,144,16.0,19.0,66,0.00,,---,0.00,559.00,VWS V14.01,2013-04-03 15:13:00,
2013-04-03 10:20:00,36.2,25.2,30.35,SSE,163,16.0,18.0,64,0.00,,---,0.00,580.00,VWS V14.01,2013-04-03 15:20:00,
2013-04-03 10:27:00,36.5,25.9,30.35,SE,138,14.0,20.0,65,0.00,,---,0.00,601.00,VWS V14.01,2013-04-03 15:27:00,
2013-04-03 10:32:00,36.9,26.2,30.34,SSE,160,12.0,20.0,65,0.00,,---,0.00,615.00,VWS V14.01,2013-04-03 15:32:00,
2013-04-03 10:38:00,37.6,26.5,30.34,SSE,155,14.0,19.0,64,0.00,,---,0.00,631.00,VWS V14.01,2013-04-03 15:38:00,
2013-04-03 10:43:00,37.6,25.4,30.34,SSE,151,15.0,21.0,61,0.00,,---,0.00,643.00,VWS V14.01,2013-04-03 15:43:00,
2013-04-03 10:48:00,37.7,26.6,30.34,South,180,19.0,21.0,64,0.00,,---,0.00,656.00,VWS V14.01,2013-04-03 15:48:00,
2013-04-03 10:54:00,37.9,26.1,30.34,SE,140,19.0,23.0,62,0.00,,---,0.00,670.00,VWS V14.01,2013-04-03 15:54:00,
2013-04-03 10:59:00,38.2,26.0,30.33,South,169,15.0,23.0,61,0.00,,---,0.00,684.00,VWS V14.01,2013-04-03 15:59:00,
2013-04-03 11:05:00,38.3,26.8,30.33,SE,132,18.0,22.0,63,0.00,,---,0.00,696.00,VWS V14.01,2013-04-03 16:05:00,
2013-04-03 11:11:00,38.4,26.1,30.33,SSE,168,12.0,22.0,61,0.00,,---,0.00,707.00,VWS V14.01,2013-04-03 16:11:00,
2013-04-03 11:25:00,39.2,27.3,30.33,SE,142,16.0,21.0,62,0.00,,---,0.00,738.00,VWS V14.01,2013-04-03 16:25:00,
2013-04-03 11:36:00,40.2,28.2,30.32,South,171,15.0,19.0,62,0.00,,---,0.00,758.00,VWS V14.01,2013-04-03 16:36:00,
2013-04-03 11:42:00,40.2,27.8,30.32,SSE,150,21.0,24.0,61,0.00,,---,0.00,766.00,VWS V14.01,2013-04-03 16:42:00,
2013-04-03 11:47:00,40.1,27.8,30.32,SSE,153,18.0,26.0,61,0.00,,---,0.00,775.00,VWS V14.01,2013-04-03 16:47:00,
2013-04-03 11:52:00,40.7,29.1,30.32,SSE,159,16.0,21.0,63,0.00,,---,0.00,779.00,VWS V14.01,2013-04-03 16:52:00,
2013-04-03 11:58:00,41.1,28.3,30.32,SSE,153,19.0,24.0,60,0.00,,---,0.00,800.00,VWS V14.01,2013-04-03 16:58:00,
2013-04-03 12:04:00,41.0,28.2,30.31,SSE,161,17.0,21.0,60,0.00,,---,0.00,823.00,VWS V14.01,2013-04-03 17:04:00,
2013-04-03 12:11:00,41.1,28.7,30.31,SSE,149,14.0,21.0,61,0.00,,---,0.00,858.00,VWS V14.01,2013-04-03 17:11:00,
2013-04-03 12:18:00,42.1,29.6,30.31,SSE,151,19.0,23.0,61,0.00,,---,0.00,879.00,VWS V14.01,2013-04-03 17:18:00,
2013-04-03 12:23:00,42.6,30.1,30.31,SSE,152,17.0,20.0,61,0.00,,---,0.00,946.00,VWS V14.01,2013-04-03 17:23:00,
2013-04-03 12:30:00,42.3,29.0,30.31,SE,132,17.0,25.0,59,0.00,,---,0.00,608.00,VWS V14.01,2013-04-03 17:30:00,
2013-04-03 12:38:00,41.9,29.9,30.30,South,175,14.0,22.0,62,0.00,,---,0.00,749.00,VWS V14.01,2013-04-03 17:38:00,
2013-04-03 12:43:00,42.1,29.6,30.30,SE,145,19.0,24.0,61,0.00,,---,0.00,608.00,VWS V14.01,2013-04-03 17:43:00,
2013-04-03 12:49:00,42.3,29.8,30.30,SSE,148,15.0,20.0,61,0.00,,---,0.00,531.00,VWS V14.01,2013-04-03 17:49:00,
2013-04-03 12:59:00,42.7,29.8,30.29,SSE,168,19.0,23.0,60,0.00,,---,0.00,547.00,VWS V14.01,2013-04-03 17:59:00,
2013-04-03 13:05:00,42.6,29.7,30.29,South,175,26.0,26.0,60,0.00,,---,0.00,476.00,VWS V14.01,2013-04-03 18:05:00,
2013-04-03 13:16:00,42.5,30.0,30.29,SE,140,21.0,27.0,61,0.00,,---,0.00,432.00,VWS V14.01,2013-04-03 18:16:00,
2013-04-03 13:22:00,42.6,30.5,30.29,SSE,163,16.0,27.0,62,0.00,,---,0.00,512.00,VWS V14.01,2013-04-03 18:22:00,
2013-04-03 13:28:00,43.7,31.1,30.28,SSE,157,19.0,27.0,61,0.00,,---,0.00,911.00,VWS V14.01,2013-04-03 18:28:00,
2013-04-03 13:35:00,44.4,31.4,30.28,South,178,24.0,29.0,60,0.00,,---,0.00,858.00,VWS V14.01,2013-04-03 18:35:00,
2013-04-03 13:40:00,44.5,31.5,30.28,South,176,22.0,32.0,60,0.00,,---,0.00,851.00,VWS V14.01,2013-04-03 18:40:00,
2013-04-03 13:46:00,44.8,31.4,30.28,SSE,159,15.0,32.0,59,0.00,,---,0.00,846.00,VWS V14.01,2013-04-03 18:46:00,
2013-04-03 13:52:00,45.3,32.2,30.27,South,182,22.0,24.0,60,0.00,,---,0.00,847.00,VWS V14.01,2013-04-03 18:52:00,
2013-04-03 14:05:00,45.5,32.4,30.26,SSE,148,21.0,25.0,60,0.00,,---,0.00,837.00,VWS V14.01,2013-04-03 19:05:00,
2013-04-03 14:10:00,45.9,33.2,30.26,SSE,164,17.0,29.0,61,0.00,,---,0.00,830.00,VWS V14.01,2013-04-03 19:10:00,
2013-04-03 14:16:00,45.9,32.8,30.26,South,178,25.0,30.0,60,0.00,,---,0.00,824.00,VWS V14.01,2013-04-03 19:16:00,
2013-04-03 14:22:00,45.7,32.6,30.26,SSW,196,25.0,33.0,60,0.00,,---,0.00,819.00,VWS V14.01,2013-04-03 19:22:00,
2013-04-03 14:27:00,45.8,33.1,30.25,South,173,21.0,33.0,61,0.00,,---,0.00,817.00,VWS V14.01,2013-04-03 19:27:00,
2013-04-03 14:32:00,46.7,34.0,30.25,SSE,167,20.0,33.0,61,0.00,,---,0.00,812.00,VWS V14.01,2013-04-03 19:32:00,
2013-04-03 14:37:00,46.5,33.4,30.25,SSW,195,25.0,28.0,60,0.00,,---,0.00,805.00,VWS V14.01,2013-04-03 19:37:00,
2013-04-03 14:45:00,46.7,33.6,30.25,South,175,14.0,31.0,60,0.00,,---,0.00,777.00,VWS V14.01,2013-04-03 19:45:00,
2013-04-03 14:50:00,46.9,34.2,30.24,South,169,21.0,24.0,61,0.00,,---,0.00,784.00,VWS V14.01,2013-04-03 19:50:00,
2013-04-03 14:57:00,46.9,33.8,30.25,South,182,25.0,28.0,60,0.00,,---,0.00,775.00,VWS V14.01,2013-04-03 19:57:00,
2013-04-03 15:04:00,47.0,34.3,30.24,SSE,163,16.0,19.0,61,0.00,,---,0.00,763.00,VWS V14.01,2013-04-03 20:04:00,
2013-04-03 15:09:00,47.5,34.7,30.24,SSE,165,23.0,27.0,61,0.00,,---,0.00,749.00,VWS V14.01,2013-04-03 20:09:00,
2013-04-03 15:15:00,47.5,34.7,30.24,South,170,20.0,31.0,61,0.00,,---,0.00,747.00,VWS V14.01,2013-04-03 20:15:00,
2013-04-03 15:24:00,47.9,35.1,30.23,SSE,164,21.0,29.0,61,0.00,,---,0.00,737.00,VWS V14.01,2013-04-03 20:24:00,
2013-04-03 15:32:00,48.1,34.5,30.23,South,190,26.0,30.0,59,0.00,,---,0.00,714.00,VWS V14.01,2013-04-03 20:32:00,
2013-04-03 15:37:00,47.7,34.9,30.22,SSE,156,21.0,31.0,61,0.00,,---,0.00,700.00,VWS V14.01,2013-04-03 20:37:00,
2013-04-03 15:44:00,48.4,35.2,30.22,South,174,15.0,31.0,60,0.00,,---,0.00,682.00,VWS V14.01,2013-04-03 20:44:00,
2013-04-03 15:51:00,48.6,36.2,30.21,South,172,13.0,25.0,62,0.00,,---,0.00,657.00,VWS V14.01,2013-04-03 20:51:00,
2013-04-03 15:58:00,49.1,36.2,30.21,SSE,159,27.0,29.0,61,0.00,,---,0.00,657.00,VWS V14.01,2013-04-03 20:58:00,
2013-04-03 16:04:00,49.2,36.3,30.20,SSW,196,25.0,25.0,61,0.00,,---,0.00,638.00,VWS V14.01,2013-04-03 21:04:00,
2013-04-03 16:13:00,49.2,35.9,30.20,South,188,18.0,26.0,60,0.00,,---,0.00,619.00,VWS V14.01,2013-04-03 21:13:00,
2013-04-03 16:19:00,49.4,36.1,30.20,South,180,17.0,21.0,60,0.00,,---,0.00,592.00,VWS V14.01,2013-04-03 21:19:00,
2013-04-03 16:25:00,50.0,36.7,30.20,SSE,168,14.0,28.0,60,0.00,,---,0.00,582.00,VWS V14.01,2013-04-03 21:25:00,
2013-04-03 16:31:00,50.2,36.9,30.19,South,180,27.0,29.0,60,0.00,,---,0.00,568.00,VWS V14.01,2013-04-03 21:31:00,
2013-04-03 16:36:00,50.2,36.9,30.19,South,181,23.0,26.0,60,0.00,,---,0.00,547.00,VWS V14.01,2013-04-03 21:36:00,
2013-04-03 16:43:00,50.2,36.9,30.19,South,179,16.0,29.0,60,0.00,,---,0.00,534.00,VWS V14.01,2013-04-03 21:43:00,
2013-04-03 16:48:00,50.3,37.0,30.18,South,180,28.0,29.0,60,0.00,,---,0.00,513.00,VWS V14.01,2013-04-03 21:48:00,
2013-04-03 16:53:00,50.5,36.7,30.18,South,180,19.0,28.0,59,0.00,,---,0.00,497.00,VWS V14.01,2013-04-03 21:53:00,
2013-04-03 17:00:00,50.7,37.3,30.18,South,173,18.0,32.0,60,0.00,,---,0.00,476.00,VWS V14.01,2013-04-03 22:00:00,
2013-04-03 17:06:00,51.0,36.8,30.17,SSE,158,15.0,25.0,58,0.00,,---,0.00,462.00,VWS V14.01,2013-04-03 22:06:00,
2013-04-03 17:11:00,51.2,37.4,30.17,South,184,12.0,27.0,59,0.00,,---,0.00,448.00,VWS V14.01,2013-04-03 22:11:00,
2013-04-03 17:16:00,51.4,37.6,30.17,SSE,165,20.0,27.0,59,0.00,,---,0.00,432.00,VWS V14.01,2013-04-03 22:16:00,
2013-04-03 17:21:00,51.6,36.9,30.17,South,187,26.0,26.0,57,0.00,,---,0.00,413.00,VWS V14.01,2013-04-03 22:21:00,
2013-04-03 17:26:00,51.9,37.2,30.17,South,191,22.0,26.0,57,0.00,,---,0.00,401.00,VWS V14.01,2013-04-03 22:26:00,
2013-04-03 17:33:00,52.0,36.3,30.16,South,177,20.0,28.0,55,0.00,,---,0.00,376.00,VWS V14.01,2013-04-03 22:33:00,
2013-04-03 17:38:00,51.9,36.7,30.16,South,172,23.0,32.0,56,0.00,,---,0.00,357.00,VWS V14.01,2013-04-03 22:38:00,
2013-04-03 17:43:00,51.9,36.7,30.16,South,179,26.0,32.0,56,0.00,,---,0.00,339.00,VWS V14.01,2013-04-03 22:43:00,
2013-04-03 17:48:00,51.8,36.2,30.16,South,169,21.0,21.0,55,0.00,,---,0.00,322.00,VWS V14.01,2013-04-03 22:48:00,
2013-04-03 17:54:00,51.7,36.1,30.16,SSW,196,18.0,25.0,55,0.00,,---,0.00,302.00,VWS V14.01,2013-04-03 22:54:00,
2013-04-03 18:01:00,51.8,37.1,30.16,South,190,21.0,25.0,57,0.00,,---,0.00,276.00,VWS V14.01,2013-04-03 23:01:00,
2013-04-03 18:07:00,51.6,36.4,30.15,SSW,199,18.0,27.0,56,0.00,,---,0.00,255.00,VWS V14.01,2013-04-03 23:07:00,
2013-04-03 18:12:00,51.5,36.3,30.15,SSW,192,18.0,27.0,56,0.00,,---,0.00,236.00,VWS V14.01,2013-04-03 23:12:00,
2013-04-03 18:18:00,51.3,36.2,30.15,South,182,20.0,27.0,56,0.00,,---,0.00,211.00,VWS V14.01,2013-04-03 23:18:00,
2013-04-03 18:25:00,51.1,36.4,30.14,South,190,20.0,24.0,57,0.00,,---,0.00,183.00,VWS V14.01,2013-04-03 23:25:00,
2013-04-03 18:33:00,50.9,36.2,30.14,South,183,17.0,27.0,57,0.00,,---,0.00,153.00,VWS V14.01,2013-04-03 23:33:00,
2013-04-03 18:39:00,50.8,36.6,30.14,South,178,13.0,24.0,58,0.00,,---,0.00,135.00,VWS V14.01,2013-04-03 23:39:00,
2013-04-03 18:44:00,50.6,36.4,30.14,South,188,16.0,24.0,58,0.00,,---,0.00,118.00,VWS V14.01,2013-04-03 23:44:00,
2013-04-03 18:50:00,50.4,36.2,30.14,South,184,14.0,17.0,58,0.00,,---,0.00,100.00,VWS V14.01,2013-04-03 23:50:00,
2013-04-03 18:55:00,50.1,36.3,30.14,South,175,15.0,22.0,59,0.00,,---,0.00,84.00,VWS V14.01,2013-04-03 23:55:00,
2013-04-03 19:01:00,49.7,36.4,30.14,South,178,18.0,22.0,60,0.00,,---,0.00,69.00,VWS V14.01,2013-04-04 00:01:00,
2013-04-03 19:09:00,49.3,36.4,30.13,South,175,12.0,20.0,61,0.00,,---,0.00,49.00,VWS V14.01,2013-04-04 00:09:00,
2013-04-03 19:14:00,49.0,36.2,30.14,South,180,15.0,20.0,61,0.00,,---,0.00,39.00,VWS V14.01,2013-04-04 00:14:00,
2013-04-03 19:23:00,48.3,36.3,30.13,SSW,195,14.0,19.0,63,0.00,,---,0.00,25.00,VWS V14.01,2013-04-04 00:23:00,
2013-04-03 19:29:00,48.0,36.0,30.13,South,176,11.0,19.0,63,0.00,,---,0.00,19.00,VWS V14.01,2013-04-04 00:29:00,
2013-04-03 19:36:00,47.4,36.2,30.13,South,176,11.0,15.0,65,0.00,,---,0.00,14.00,VWS V14.01,2013-04-04 00:36:00,
2013-04-03 19:42:00,47.0,36.2,30.13,SSE,163,9.0,15.0,66,0.00,,---,0.00,9.00,VWS V14.01,2013-04-04 00:42:00,
2013-04-03 19:48:00,46.5,36.2,30.12,South,170,12.0,17.0,67,0.00,,---,0.00,5.00,VWS V14.01,2013-04-04 00:48:00,
2013-04-03 19:54:00,46.1,36.1,30.12,SSE,162,11.0,16.0,68,0.00,,---,0.00,0.00,VWS V14.01,2013-04-04 00:54:00,
2013-04-03 19:59:00,45.8,35.8,30.12,South,173,13.0,16.0,68,0.00,,---,0.00,0.00,VWS V14.01,2013-04-04 00:59:00,
2013-04-03 20:05:00,45.4,35.8,30.12,SSE,165,11.0,16.0,69,0.00,,---,0.00,0.00,VWS V14.01,2013-04-04 01:05:00,
2013-04-03 20:12:00,45.1,35.5,30.12,South,170,14.0,16.0,69,0.00,,---,0.00,0.00,VWS V14.01,2013-04-04 01:12:00,
2013-04-03 20:18:00,44.8,35.6,30.12,SSE,165,12.0,19.0,70,0.00,,---,0.00,0.00,VWS V14.01,2013-04-04 01:18:00,
2013-04-03 20:23:00,44.6,35.4,30.12,SSE,165,13.0,16.0,70,0.00,,---,0.00,0.00,VWS V14.01,2013-04-04 01:23:00,
2013-04-03 20:29:00,44.4,35.2,30.12,SSE,165,12.0,17.0,70,0.00,,---,0.00,0.00,VWS V14.01,2013-04-04 01:29:00,
2013-04-03 20:35:00,44.1,35.3,30.12,South,173,13.0,16.0,71,0.00,,---,0.00,0.00,VWS V14.01,2013-04-04 01:35:00,
2013-04-03 20:40:00,44.1,35.3,30.11,South,178,12.0,19.0,71,0.00,,---,0.00,0.00,VWS V14.01,2013-04-04 01:40:00,
2013-04-03 20:47:00,43.8,35.0,30.12,South,175,16.0,20.0,71,0.00,,---,0.00,0.00,VWS V14.01,2013-04-04 01:47:00,
2013-04-03 20:54:00,43.7,34.9,30.12,SSE,155,18.0,18.0,71,0.00,,---,0.00,0.00,VWS V14.01,2013-04-04 01:54:00,
2013-04-03 20:59:00,43.7,34.9,30.12,South,173,13.0,22.0,71,0.00,,---,0.00,0.00,VWS V14.01,2013-04-04 01:59:00,
2013-04-03 21:06:00,43.6,34.8,30.12,South,173,17.0,21.0,71,0.00,,---,0.00,0.00,VWS V14.01,2013-04-04 02:06:00,
2013-04-03 21:12:00,43.3,34.5,30.12,South,171,14.0,21.0,71,0.00,,---,0.00,0.00,VWS V14.01,2013-04-04 02:12:00,
2013-04-03 21:20:00,42.9,34.5,30.11,SSE,163,13.0,19.0,72,0.00,,---,0.00,0.00,VWS V14.01,2013-04-04 02:20:00,
2013-04-03 21:25:00,43.1,34.3,30.11,South,182,16.0,21.0,71,0.00,,---,0.00,0.00,VWS V14.01,2013-04-04 02:25:00,
2013-04-03 21:31:00,43.0,34.2,30.11,South,173,16.0,21.0,71,0.00,,---,0.00,0.00,VWS V14.01,2013-04-04 02:31:00,
2013-04-03 21:44:00,43.1,34.0,30.11,SSE,167,14.0,22.0,70,0.00,,---,0.00,0.00,VWS V14.01,2013-04-04 02:44:00,
2013-04-03 21:50:00,43.2,33.7,30.11,South,180,15.0,20.0,69,0.00,,---,0.00,0.00,VWS V14.01,2013-04-04 02:50:00,
2013-04-03 21:56:00,43.0,33.5,30.11,South,183,14.0,22.0,69,0.00,,---,0.00,0.00,VWS V14.01,2013-04-04 02:56:00,
2013-04-03 22:01:00,43.1,33.6,30.11,South,184,19.0,25.0,69,0.00,,---,0.00,0.00,VWS V14.01,2013-04-04 03:01:00,
2013-04-03 22:07:00,42.8,33.3,30.11,South,183,18.0,22.0,69,0.00,,---,0.00,0.00,VWS V14.01,2013-04-04 03:07:00,
2013-04-03 22:16:00,42.8,33.3,30.11,South,180,20.0,25.0,69,0.00,,---,0.00,0.00,VWS V14.01,2013-04-04 03:16:00,
2013-04-03 22:21:00,42.5,33.1,30.10,SSE,163,18.0,23.0,69,0.00,,---,0.00,0.00,VWS V14.01,2013-04-04 03:21:00,
2013-04-03 22:27:00,42.3,32.9,30.10,South,186,18.0,24.0,69,0.00,,---,0.00,0.00,VWS V14.01,2013-04-04 03:27:00,
2013-04-03 22:32:00,42.1,32.7,30.10,South,182,15.0,26.0,69,0.00,,---,0.00,0.00,VWS V14.01,2013-04-04 03:32:00,
2013-04-03 22:37:00,42.0,32.6,30.09,South,187,18.0,24.0,69,0.00,,---,0.00,0.00,VWS V14.01,2013-04-04 03:37:00,
2013-04-03 22:46:00,41.9,32.5,30.09,South,187,20.0,26.0,69,0.00,,---,0.00,0.00,VWS V14.01,2013-04-04 03:46:00,
2013-04-03 22:51:00,41.8,32.4,30.09,South,183,22.0,24.0,69,0.00,,---,0.00,0.00,VWS V14.01,2013-04-04 03:51:00,
2013-04-03 22:57:00,41.9,32.5,30.09,South,176,22.0,27.0,69,0.00,,---,0.00,0.00,VWS V14.01,2013-04-04 03:57:00,
2013-04-03 23:00:00,41.9,32.5,30.09,SSW,196,20.0,27.0,69,0.00,,---,0.00,0.00,VWS V14.01,2013-04-04 04:00:00,
2013-04-03 23:03:00,41.9,32.1,30.09,South,190,24.0,27.0,68,0.00,,---,0.00,0.00,VWS V14.01,2013-04-04 04:03:00,
2013-04-03 23:04:00,41.9,32.1,30.09,South,171,19.0,26.0,68,0.00,,---,0.00,0.00,VWS V14.01,2013-04-04 04:04:00,
2013-04-03 23:07:00,42.4,32.2,30.09,South,183,18.0,30.0,67,0.00,,---,0.00,0.00,VWS V14.01,2013-04-04 04:07:00,
2013-04-03 23:13:00,42.8,32.2,30.08,SSW,192,22.0,30.0,66,0.00,,---,0.00,0.00,VWS V14.01,2013-04-04 04:13:00,
2013-04-03 23:18:00,43.1,32.2,30.08,South,188,17.0,32.0,65,0.00,,---,0.00,0.00,VWS V14.01,2013-04-04 04:18:00,
2013-04-03 23:27:00,43.3,32.0,30.08,SSW,206,22.0,31.0,64,0.00,,---,0.00,0.00,VWS V14.01,2013-04-04 04:27:00,
2013-04-03 23:32:00,43.3,32.0,30.08,SSW,192,23.0,31.0,64,0.00,,---,0.00,0.00,VWS V14.01,2013-04-04 04:32:00,
2013-04-03 23:37:00,43.1,32.2,30.08,SSE,160,22.0,32.0,65,0.00,,---,0.00,0.00,VWS V14.01,2013-04-04 04:37:00,
2013-04-03 23:42:00,42.7,31.8,30.08,SSW,198,16.0,32.0,65,0.00,,---,0.00,0.00,VWS V14.01,2013-04-04 04:42:00,
2013-04-03 23:48:00,42.5,32.0,30.08,SSW,192,23.0,32.0,66,0.00,,---,0.00,0.00,VWS V14.01,2013-04-04 04:48:00,
2013-04-03 23:55:00,42.0,31.9,30.08,South,190,18.0,24.0,67,0.00,,---,0.00,0.00,VWS V14.01,2013-04-04 04:55:00,